sensor_id;sensor_type;location;lat;lon;timestamp;temperature;humidity
38398;DHT22;24179;52.094;4.408;2022-09-09T00:08:02;15.60;99.90
38398;DHT22;24179;52.094;4.408;2022-09-09T00:11:04;15.50;99.90
38398;DHT22;24179;52.094;4.408;2022-09-09T00:14:09;15.50;99.90
38398;DHT22;24179;52.094;4.408;2022-09-09T00:17:12;15.50;99.90
38398;DHT22;24179;52.094;4.408;2022-09-09T00:20:16;15.50;99.90
38398;DHT22;24179;52.094;4.408;2022-09-09T00:23:38;15.50;99.90
38398;DHT22;24179;52.094;4.408;2022-09-09T00:26:40;15.50;99.90
38398;DHT22;24179;52.094;4.408;2022-09-09T00:32:43;15.40;99.90
38398;DHT22;24179;52.094;4.408;2022-09-09T00:35:48;15.50;99.90
38398;DHT22;24179;52.094;4.408;2022-09-09T00:38:50;15.50;99.90
38398;DHT22;24179;52.094;4.408;2022-09-09T00:42:15;15.60;99.90
38398;DHT22;24179;52.094;4.408;2022-09-09T00:48:14;15.70;99.90
38398;DHT22;24179;52.094;4.408;2022-09-09T00:54:33;15.60;99.90
38398;DHT22;24179;52.094;4.408;2022-09-09T00:57:36;15.50;99.90
38398;DHT22;24179;52.094;4.408;2022-09-09T01:03:52;15.40;99.90
38398;DHT22;24179;52.094;4.408;2022-09-09T01:06:59;15.30;99.90
38398;DHT22;24179;52.094;4.408;2022-09-09T01:10:15;15.20;99.90
38398;DHT22;24179;52.094;4.408;2022-09-09T01:13:24;15.20;99.90
38398;DHT22;24179;52.094;4.408;2022-09-09T01:16:26;15.10;99.90
38398;DHT22;24179;52.094;4.408;2022-09-09T01:19:34;15.00;99.90
38398;DHT22;24179;52.094;4.408;2022-09-09T01:28:44;14.80;99.90
38398;DHT22;24179;52.094;4.408;2022-09-09T01:34:52;14.80;99.90
38398;DHT22;24179;52.094;4.408;2022-09-09T01:37:52;14.70;99.90
38398;DHT22;24179;52.094;4.408;2022-09-09T01:40:53;14.70;99.90
38398;DHT22;24179;52.094;4.408;2022-09-09T01:43:54;14.60;99.90
38398;DHT22;24179;52.094;4.408;2022-09-09T01:46:57;14.60;99.90
38398;DHT22;24179;52.094;4.408;2022-09-09T01:49:58;14.50;99.90
38398;DHT22;24179;52.094;4.408;2022-09-09T01:52:59;14.50;99.90
38398;DHT22;24179;52.094;4.408;2022-09-09T01:56:07;14.50;99.90
38398;DHT22;24179;52.094;4.408;2022-09-09T02:02:48;14.40;99.90
38398;DHT22;24179;52.094;4.408;2022-09-09T02:08:55;14.40;99.90
38398;DHT22;24179;52.094;4.408;2022-09-09T02:11:58;14.30;99.90
38398;DHT22;24179;52.094;4.408;2022-09-09T02:15:05;14.30;99.90
38398;DHT22;24179;52.094;4.408;2022-09-09T02:18:08;14.30;99.90
38398;DHT22;24179;52.094;4.408;2022-09-09T02:21:11;14.30;99.90
38398;DHT22;24179;52.094;4.408;2022-09-09T02:24:12;14.30;99.90
38398;DHT22;24179;52.094;4.408;2022-09-09T02:27:14;14.30;99.90
38398;DHT22;24179;52.094;4.408;2022-09-09T02:30:16;14.30;99.90
38398;DHT22;24179;52.094;4.408;2022-09-09T02:33:17;14.30;99.90
38398;DHT22;24179;52.094;4.408;2022-09-09T02:36:18;14.30;99.90
38398;DHT22;24179;52.094;4.408;2022-09-09T02:39:21;14.30;99.90
38398;DHT22;24179;52.094;4.408;2022-09-09T02:42:21;14.40;99.90
38398;DHT22;24179;52.094;4.408;2022-09-09T02:45:27;14.40;99.90
38398;DHT22;24179;52.094;4.408;2022-09-09T02:48:30;14.30;99.90
38398;DHT22;24179;52.094;4.408;2022-09-09T02:54:37;14.40;99.90
38398;DHT22;24179;52.094;4.408;2022-09-09T02:57:39;14.40;99.90
38398;DHT22;24179;52.094;4.408;2022-09-09T03:00:40;14.50;99.90
38398;DHT22;24179;52.094;4.408;2022-09-09T03:03:41;14.60;99.90
38398;DHT22;24179;52.094;4.408;2022-09-09T03:06:42;14.60;99.90
38398;DHT22;24179;52.094;4.408;2022-09-09T03:09:43;14.60;99.90
38398;DHT22;24179;52.094;4.408;2022-09-09T03:12:44;14.60;99.90
38398;DHT22;24179;52.094;4.408;2022-09-09T03:15:45;14.60;99.90
38398;DHT22;24179;52.094;4.408;2022-09-09T03:18:45;14.60;99.90
38398;DHT22;24179;52.094;4.408;2022-09-09T03:21:46;14.60;99.90
38398;DHT22;24179;52.094;4.408;2022-09-09T03:24:47;14.60;99.90
38398;DHT22;24179;52.094;4.408;2022-09-09T03:27:47;14.60;99.90
38398;DHT22;24179;52.094;4.408;2022-09-09T03:30:48;14.70;99.90
38398;DHT22;24179;52.094;4.408;2022-09-09T03:33:49;14.70;99.90
38398;DHT22;24179;52.094;4.408;2022-09-09T03:36:49;14.70;99.90
38398;DHT22;24179;52.094;4.408;2022-09-09T03:39:50;14.70;99.90
38398;DHT22;24179;52.094;4.408;2022-09-09T03:42:51;14.80;99.90
38398;DHT22;24179;52.094;4.408;2022-09-09T03:45:51;14.70;99.90
38398;DHT22;24179;52.094;4.408;2022-09-09T03:48:52;14.70;99.90
38398;DHT22;24179;52.094;4.408;2022-09-09T03:51:53;14.70;99.90
38398;DHT22;24179;52.094;4.408;2022-09-09T03:54:53;14.60;99.90
38398;DHT22;24179;52.094;4.408;2022-09-09T03:57:54;14.70;99.90
38398;DHT22;24179;52.094;4.408;2022-09-09T04:01:11;14.60;99.90
38398;DHT22;24179;52.094;4.408;2022-09-09T04:04:15;14.60;99.90
38398;DHT22;24179;52.094;4.408;2022-09-09T04:07:15;14.50;99.90
38398;DHT22;24179;52.094;4.408;2022-09-09T04:10:17;14.40;99.90
38398;DHT22;24179;52.094;4.408;2022-09-09T04:13:18;14.40;99.90
38398;DHT22;24179;52.094;4.408;2022-09-09T04:16:19;14.40;99.90
38398;DHT22;24179;52.094;4.408;2022-09-09T04:19:20;14.40;99.90
38398;DHT22;24179;52.094;4.408;2022-09-09T04:22:20;14.30;99.90
38398;DHT22;24179;52.094;4.408;2022-09-09T04:25:22;14.30;99.90
38398;DHT22;24179;52.094;4.408;2022-09-09T04:28:23;14.40;99.90
38398;DHT22;24179;52.094;4.408;2022-09-09T04:31:24;14.40;99.90
38398;DHT22;24179;52.094;4.408;2022-09-09T04:34:24;14.50;99.90
38398;DHT22;24179;52.094;4.408;2022-09-09T04:37:25;14.60;99.90
38398;DHT22;24179;52.094;4.408;2022-09-09T04:40:26;14.60;99.90
38398;DHT22;24179;52.094;4.408;2022-09-09T04:43:26;14.50;99.90
38398;DHT22;24179;52.094;4.408;2022-09-09T04:46:27;14.60;99.90
38398;DHT22;24179;52.094;4.408;2022-09-09T04:49:29;14.60;99.90
38398;DHT22;24179;52.094;4.408;2022-09-09T04:52:33;14.60;99.90
38398;DHT22;24179;52.094;4.408;2022-09-09T04:55:34;14.60;99.90
38398;DHT22;24179;52.094;4.408;2022-09-09T04:58:35;14.70;99.90
38398;DHT22;24179;52.094;4.408;2022-09-09T05:01:36;14.70;99.90
38398;DHT22;24179;52.094;4.408;2022-09-09T05:04:37;14.70;99.90
38398;DHT22;24179;52.094;4.408;2022-09-09T05:07:37;14.70;99.90
38398;DHT22;24179;52.094;4.408;2022-09-09T05:10:38;14.60;99.90
38398;DHT22;24179;52.094;4.408;2022-09-09T05:13:39;14.70;99.90
38398;DHT22;24179;52.094;4.408;2022-09-09T05:16:40;14.60;99.90
38398;DHT22;24179;52.094;4.408;2022-09-09T05:19:41;14.60;99.90
38398;DHT22;24179;52.094;4.408;2022-09-09T05:22:41;14.60;99.90
38398;DHT22;24179;52.094;4.408;2022-09-09T05:25:41;14.60;99.90
38398;DHT22;24179;52.094;4.408;2022-09-09T05:28:42;14.60;99.90
38398;DHT22;24179;52.094;4.408;2022-09-09T05:31:43;14.70;99.90
38398;DHT22;24179;52.094;4.408;2022-09-09T05:34:43;14.80;99.90
38398;DHT22;24179;52.094;4.408;2022-09-09T05:37:44;14.90;99.90
38398;DHT22;24179;52.094;4.408;2022-09-09T05:40:48;15.00;99.90
38398;DHT22;24179;52.094;4.408;2022-09-09T05:43:50;15.10;99.90
38398;DHT22;24179;52.094;4.408;2022-09-09T05:46:50;15.20;99.90
38398;DHT22;24179;52.094;4.408;2022-09-09T05:49:51;15.30;99.90
38398;DHT22;24179;52.094;4.408;2022-09-09T05:52:54;15.30;99.90
38398;DHT22;24179;52.094;4.408;2022-09-09T05:59:04;15.40;99.90
38398;DHT22;24179;52.094;4.408;2022-09-09T06:02:07;15.50;99.90
38398;DHT22;24179;52.094;4.408;2022-09-09T06:05:08;15.60;99.90
38398;DHT22;24179;52.094;4.408;2022-09-09T06:08:08;15.60;99.90
38398;DHT22;24179;52.094;4.408;2022-09-09T06:14:09;15.70;99.90
38398;DHT22;24179;52.094;4.408;2022-09-09T06:17:10;15.70;99.90
38398;DHT22;24179;52.094;4.408;2022-09-09T06:20:10;15.70;99.90
38398;DHT22;24179;52.094;4.408;2022-09-09T06:23:11;15.80;99.90
38398;DHT22;24179;52.094;4.408;2022-09-09T06:26:16;15.80;99.90
38398;DHT22;24179;52.094;4.408;2022-09-09T06:29:20;15.90;99.90
38398;DHT22;24179;52.094;4.408;2022-09-09T06:32:20;16.00;99.90
38398;DHT22;24179;52.094;4.408;2022-09-09T06:35:21;16.10;99.90
38398;DHT22;24179;52.094;4.408;2022-09-09T06:38:21;16.10;99.90
38398;DHT22;24179;52.094;4.408;2022-09-09T06:41:24;16.10;99.90
38398;DHT22;24179;52.094;4.408;2022-09-09T06:44:26;16.20;99.90
38398;DHT22;24179;52.094;4.408;2022-09-09T06:47:27;16.20;99.90
38398;DHT22;24179;52.094;4.408;2022-09-09T06:50:28;16.20;99.90
38398;DHT22;24179;52.094;4.408;2022-09-09T06:53:28;16.10;99.90
38398;DHT22;24179;52.094;4.408;2022-09-09T06:56:30;16.20;99.90
38398;DHT22;24179;52.094;4.408;2022-09-09T06:59:31;16.20;99.90
38398;DHT22;24179;52.094;4.408;2022-09-09T07:02:31;16.20;99.90
38398;DHT22;24179;52.094;4.408;2022-09-09T07:05:32;16.20;99.90
38398;DHT22;24179;52.094;4.408;2022-09-09T07:08:33;16.40;99.90
38398;DHT22;24179;52.094;4.408;2022-09-09T07:11:36;16.40;99.90
38398;DHT22;24179;52.094;4.408;2022-09-09T07:14:37;16.50;99.90
38398;DHT22;24179;52.094;4.408;2022-09-09T07:17:38;16.50;99.90
38398;DHT22;24179;52.094;4.408;2022-09-09T07:20:38;16.50;99.90
38398;DHT22;24179;52.094;4.408;2022-09-09T07:23:39;16.50;99.90
38398;DHT22;24179;52.094;4.408;2022-09-09T07:26:41;16.40;99.90
38398;DHT22;24179;52.094;4.408;2022-09-09T07:29:42;16.40;99.90
38398;DHT22;24179;52.094;4.408;2022-09-09T07:32:43;16.40;99.90
38398;DHT22;24179;52.094;4.408;2022-09-09T07:35:43;16.30;99.90
38398;DHT22;24179;52.094;4.408;2022-09-09T07:38:44;16.30;99.90
38398;DHT22;24179;52.094;4.408;2022-09-09T07:41:46;16.30;99.90
38398;DHT22;24179;52.094;4.408;2022-09-09T07:44:48;16.30;99.90
38398;DHT22;24179;52.094;4.408;2022-09-09T07:47:49;16.20;99.90
38398;DHT22;24179;52.094;4.408;2022-09-09T07:50:50;16.30;99.90
38398;DHT22;24179;52.094;4.408;2022-09-09T07:53:52;16.30;99.90
38398;DHT22;24179;52.094;4.408;2022-09-09T07:56:53;16.30;99.90
38398;DHT22;24179;52.094;4.408;2022-09-09T07:59:54;16.30;99.90
38398;DHT22;24179;52.094;4.408;2022-09-09T08:02:54;16.40;99.90
38398;DHT22;24179;52.094;4.408;2022-09-09T08:05:59;16.40;99.90
38398;DHT22;24179;52.094;4.408;2022-09-09T08:09:02;16.50;99.90
38398;DHT22;24179;52.094;4.408;2022-09-09T08:12:02;16.60;99.90
38398;DHT22;24179;52.094;4.408;2022-09-09T08:15:03;16.70;99.90
38398;DHT22;24179;52.094;4.408;2022-09-09T08:18:04;16.70;99.90
38398;DHT22;24179;52.094;4.408;2022-09-09T08:21:05;16.80;99.90
38398;DHT22;24179;52.094;4.408;2022-09-09T08:24:06;16.70;99.90
38398;DHT22;24179;52.094;4.408;2022-09-09T08:27:07;16.80;99.90
38398;DHT22;24179;52.094;4.408;2022-09-09T08:30:08;16.80;99.90
38398;DHT22;24179;52.094;4.408;2022-09-09T08:33:08;16.70;99.90
38398;DHT22;24179;52.094;4.408;2022-09-09T08:36:10;16.80;99.90
38398;DHT22;24179;52.094;4.408;2022-09-09T08:39:12;16.80;99.90
38398;DHT22;24179;52.094;4.408;2022-09-09T08:51:23;16.80;99.90
38398;DHT22;24179;52.094;4.408;2022-09-09T08:54:33;16.90;99.90
38398;DHT22;24179;52.094;4.408;2022-09-09T08:57:35;17.00;99.90
38398;DHT22;24179;52.094;4.408;2022-09-09T09:00:48;17.00;99.90
38398;DHT22;24179;52.094;4.408;2022-09-09T09:13:25;16.80;99.90
38398;DHT22;24179;52.094;4.408;2022-09-09T09:16:30;16.90;99.90
38398;DHT22;24179;52.094;4.408;2022-09-09T09:19:33;17.00;99.90
38398;DHT22;24179;52.094;4.408;2022-09-09T09:22:41;16.80;99.90
38398;DHT22;24179;52.094;4.408;2022-09-09T09:25:43;16.60;99.90
38398;DHT22;24179;52.094;4.408;2022-09-09T09:28:44;16.40;99.90
38398;DHT22;24179;52.094;4.408;2022-09-09T09:31:45;16.50;99.90
38398;DHT22;24179;52.094;4.408;2022-09-09T09:34:51;16.60;99.90
38398;DHT22;24179;52.094;4.408;2022-09-09T09:37:56;17.00;99.90
38398;DHT22;24179;52.094;4.408;2022-09-09T09:40:58;17.30;99.90
38398;DHT22;24179;52.094;4.408;2022-09-09T09:43:59;17.60;99.90
38398;DHT22;24179;52.094;4.408;2022-09-09T09:50:17;17.50;99.90
38398;DHT22;24179;52.094;4.408;2022-09-09T09:53:22;17.50;99.90
38398;DHT22;24179;52.094;4.408;2022-09-09T09:56:27;17.70;99.90
38398;DHT22;24179;52.094;4.408;2022-09-09T09:59:34;17.70;99.90
38398;DHT22;24179;52.094;4.408;2022-09-09T10:02:39;17.50;99.90
38398;DHT22;24179;52.094;4.408;2022-09-09T10:05:44;17.10;99.90
38398;DHT22;24179;52.094;4.408;2022-09-09T10:08:45;16.80;99.90
38398;DHT22;24179;52.094;4.408;2022-09-09T10:11:50;16.60;99.90
38398;DHT22;24179;52.094;4.408;2022-09-09T10:17:56;16.30;99.90
38398;DHT22;24179;52.094;4.408;2022-09-09T10:21:02;16.20;99.90
38398;DHT22;24179;52.094;4.408;2022-09-09T10:30:53;16.30;99.90
38398;DHT22;24179;52.094;4.408;2022-09-09T10:36:58;16.30;99.90
38398;DHT22;24179;52.094;4.408;2022-09-09T10:40:22;16.10;99.90
38398;DHT22;24179;52.094;4.408;2022-09-09T10:56:17;17.50;99.90
38398;DHT22;24179;52.094;4.408;2022-09-09T10:59:22;18.00;99.90
38398;DHT22;24179;52.094;4.408;2022-09-09T11:02:28;17.90;99.90
38398;DHT22;24179;52.094;4.408;2022-09-09T11:08:49;17.70;99.90
38398;DHT22;24179;52.094;4.408;2022-09-09T11:11:57;17.90;99.90
38398;DHT22;24179;52.094;4.408;2022-09-09T11:15:05;17.90;99.90
38398;DHT22;24179;52.094;4.408;2022-09-09T11:18:08;18.00;99.90
38398;DHT22;24179;52.094;4.408;2022-09-09T11:21:16;18.10;99.90
38398;DHT22;24179;52.094;4.408;2022-09-09T11:27:37;18.20;99.90
38398;DHT22;24179;52.094;4.408;2022-09-09T11:34:03;17.90;99.90
38398;DHT22;24179;52.094;4.408;2022-09-09T11:37:29;17.70;99.90
38398;DHT22;24179;52.094;4.408;2022-09-09T11:40:38;17.40;99.90
38398;DHT22;24179;52.094;4.408;2022-09-09T11:46:40;17.00;99.90
38398;DHT22;24179;52.094;4.408;2022-09-09T11:49:41;16.60;99.90
38398;DHT22;24179;52.094;4.408;2022-09-09T11:52:43;16.40;99.90
38398;DHT22;24179;52.094;4.408;2022-09-09T11:55:46;16.40;99.90
38398;DHT22;24179;52.094;4.408;2022-09-09T12:05:05;17.10;99.90
38398;DHT22;24179;52.094;4.408;2022-09-09T12:08:09;17.50;99.90
38398;DHT22;24179;52.094;4.408;2022-09-09T12:11:11;17.70;99.90
38398;DHT22;24179;52.094;4.408;2022-09-09T12:14:19;17.90;99.90
38398;DHT22;24179;52.094;4.408;2022-09-09T12:17:21;18.00;99.90
38398;DHT22;24179;52.094;4.408;2022-09-09T12:30:17;18.10;99.90
38398;DHT22;24179;52.094;4.408;2022-09-09T12:33:18;18.10;99.90
38398;DHT22;24179;52.094;4.408;2022-09-09T12:36:20;18.00;99.90
38398;DHT22;24179;52.094;4.408;2022-09-09T12:42:31;18.00;99.90
38398;DHT22;24179;52.094;4.408;2022-09-09T12:45:35;18.00;99.90
38398;DHT22;24179;52.094;4.408;2022-09-09T12:48:40;18.10;99.90
38398;DHT22;24179;52.094;4.408;2022-09-09T12:51:42;18.10;99.90
38398;DHT22;24179;52.094;4.408;2022-09-09T12:54:46;18.00;99.90
38398;DHT22;24179;52.094;4.408;2022-09-09T12:57:47;17.90;99.90
38398;DHT22;24179;52.094;4.408;2022-09-09T13:00:54;17.80;99.90
38398;DHT22;24179;52.094;4.408;2022-09-09T13:03:58;17.70;99.90
38398;DHT22;24179;52.094;4.408;2022-09-09T13:07:06;17.60;99.90
38398;DHT22;24179;52.094;4.408;2022-09-09T13:10:10;17.70;99.90
38398;DHT22;24179;52.094;4.408;2022-09-09T13:13:17;17.70;99.90
38398;DHT22;24179;52.094;4.408;2022-09-09T13:16:19;17.60;99.90
38398;DHT22;24179;52.094;4.408;2022-09-09T13:19:20;17.50;99.90
38398;DHT22;24179;52.094;4.408;2022-09-09T13:25:28;17.60;99.90
38398;DHT22;24179;52.094;4.408;2022-09-09T13:28:29;17.70;99.90
38398;DHT22;24179;52.094;4.408;2022-09-09T13:31:33;17.70;99.90
38398;DHT22;24179;52.094;4.408;2022-09-09T13:34:34;17.60;99.90
38398;DHT22;24179;52.094;4.408;2022-09-09T13:37:38;17.50;99.90
38398;DHT22;24179;52.094;4.408;2022-09-09T13:40:51;17.20;99.90
38398;DHT22;24179;52.094;4.408;2022-09-09T13:43:52;17.10;99.90
38398;DHT22;24179;52.094;4.408;2022-09-09T13:50:26;16.70;99.90
38398;DHT22;24179;52.094;4.408;2022-09-09T13:53:27;16.50;99.90
38398;DHT22;24179;52.094;4.408;2022-09-09T13:56:28;16.30;99.90
38398;DHT22;24179;52.094;4.408;2022-09-09T13:59:29;16.10;99.90
38398;DHT22;24179;52.094;4.408;2022-09-09T14:02:30;15.90;99.90
38398;DHT22;24179;52.094;4.408;2022-09-09T14:05:31;15.80;99.90
38398;DHT22;24179;52.094;4.408;2022-09-09T14:08:32;15.90;99.90
38398;DHT22;24179;52.094;4.408;2022-09-09T14:11:37;16.00;99.90
38398;DHT22;24179;52.094;4.408;2022-09-09T14:14:38;16.10;99.90
38398;DHT22;24179;52.094;4.408;2022-09-09T14:17:38;16.50;99.90
38398;DHT22;24179;52.094;4.408;2022-09-09T14:20:39;16.80;99.90
38398;DHT22;24179;52.094;4.408;2022-09-09T14:23:39;17.30;99.90
38398;DHT22;24179;52.094;4.408;2022-09-09T14:26:40;17.60;99.90
38398;DHT22;24179;52.094;4.408;2022-09-09T14:29:41;17.80;99.90
38398;DHT22;24179;52.094;4.408;2022-09-09T14:32:43;18.20;99.90
38398;DHT22;24179;52.094;4.408;2022-09-09T14:35:44;19.40;99.90
38398;DHT22;24179;52.094;4.408;2022-09-09T14:38:44;20.80;99.90
38398;DHT22;24179;52.094;4.408;2022-09-09T14:41:45;22.30;99.90
38398;DHT22;24179;52.094;4.408;2022-09-09T14:44:46;23.30;99.90
38398;DHT22;24179;52.094;4.408;2022-09-09T14:47:49;23.10;99.90
38398;DHT22;24179;52.094;4.408;2022-09-09T14:50:49;21.80;99.90
38398;DHT22;24179;52.094;4.408;2022-09-09T14:53:53;20.80;99.90
38398;DHT22;24179;52.094;4.408;2022-09-09T14:56:54;20.10;99.90
38398;DHT22;24179;52.094;4.408;2022-09-09T14:59:54;19.60;99.90
38398;DHT22;24179;52.094;4.408;2022-09-09T15:02:55;19.30;99.90
38398;DHT22;24179;52.094;4.408;2022-09-09T15:05:55;19.10;99.90
38398;DHT22;24179;52.094;4.408;2022-09-09T15:08:58;18.80;99.90
38398;DHT22;24179;52.094;4.408;2022-09-09T15:11:59;18.70;99.90
38398;DHT22;24179;52.094;4.408;2022-09-09T15:15:01;18.60;99.90
38398;DHT22;24179;52.094;4.408;2022-09-09T15:18:01;18.40;99.90
38398;DHT22;24179;52.094;4.408;2022-09-09T15:21:02;18.10;99.90
38398;DHT22;24179;52.094;4.408;2022-09-09T15:24:05;17.80;99.90
38398;DHT22;24179;52.094;4.408;2022-09-09T15:27:08;17.60;99.90
38398;DHT22;24179;52.094;4.408;2022-09-09T15:30:09;17.40;99.90
38398;DHT22;24179;52.094;4.408;2022-09-09T15:33:10;17.20;99.90
38398;DHT22;24179;52.094;4.408;2022-09-09T15:36:14;17.00;99.90
38398;DHT22;24179;52.094;4.408;2022-09-09T15:39:15;16.90;99.90
38398;DHT22;24179;52.094;4.408;2022-09-09T15:42:16;17.60;99.90
38398;DHT22;24179;52.094;4.408;2022-09-09T15:45:17;18.10;99.90
38398;DHT22;24179;52.094;4.408;2022-09-09T15:48:17;19.30;99.90
38398;DHT22;24179;52.094;4.408;2022-09-09T15:51:18;20.30;99.90
38398;DHT22;24179;52.094;4.408;2022-09-09T15:54:19;20.20;99.90
38398;DHT22;24179;52.094;4.408;2022-09-09T15:57:20;20.00;99.90
38398;DHT22;24179;52.094;4.408;2022-09-09T16:00:21;19.70;99.90
38398;DHT22;24179;52.094;4.408;2022-09-09T16:03:22;20.80;99.90
38398;DHT22;24179;52.094;4.408;2022-09-09T16:06:23;20.50;99.90
38398;DHT22;24179;52.094;4.408;2022-09-09T16:09:24;21.40;99.90
38398;DHT22;24179;52.094;4.408;2022-09-09T16:12:25;21.20;99.90
38398;DHT22;24179;52.094;4.408;2022-09-09T16:15:26;20.20;99.90
38398;DHT22;24179;52.094;4.408;2022-09-09T16:18:32;19.80;99.90
38398;DHT22;24179;52.094;4.408;2022-09-09T16:21:34;19.30;99.90
38398;DHT22;24179;52.094;4.408;2022-09-09T16:24:35;18.80;99.90
38398;DHT22;24179;52.094;4.408;2022-09-09T16:27:35;18.50;99.90
38398;DHT22;24179;52.094;4.408;2022-09-09T16:30:36;18.30;99.90
38398;DHT22;24179;52.094;4.408;2022-09-09T16:33:39;18.30;99.90
38398;DHT22;24179;52.094;4.408;2022-09-09T16:36:40;18.10;99.90
38398;DHT22;24179;52.094;4.408;2022-09-09T16:39:41;18.10;99.90
38398;DHT22;24179;52.094;4.408;2022-09-09T16:42:42;18.10;99.90
38398;DHT22;24179;52.094;4.408;2022-09-09T16:45:42;18.40;99.90
38398;DHT22;24179;52.094;4.408;2022-09-09T16:48:44;18.40;99.90
38398;DHT22;24179;52.094;4.408;2022-09-09T16:51:45;18.30;99.90
38398;DHT22;24179;52.094;4.408;2022-09-09T16:54:49;18.10;99.90
38398;DHT22;24179;52.094;4.408;2022-09-09T16:57:50;17.90;99.90
38398;DHT22;24179;52.094;4.408;2022-09-09T17:00:50;17.70;99.90
38398;DHT22;24179;52.094;4.408;2022-09-09T17:03:54;17.60;99.90
38398;DHT22;24179;52.094;4.408;2022-09-09T17:06:55;17.60;99.90
38398;DHT22;24179;52.094;4.408;2022-09-09T17:09:57;17.50;99.90
38398;DHT22;24179;52.094;4.408;2022-09-09T17:12:57;17.50;99.90
38398;DHT22;24179;52.094;4.408;2022-09-09T17:15:58;17.50;99.90
38398;DHT22;24179;52.094;4.408;2022-09-09T17:18:58;17.40;99.90
38398;DHT22;24179;52.094;4.408;2022-09-09T17:21:59;16.90;99.90
38398;DHT22;24179;52.094;4.408;2022-09-09T17:25:00;16.60;99.90
38398;DHT22;24179;52.094;4.408;2022-09-09T17:28:01;16.50;99.90
38398;DHT22;24179;52.094;4.408;2022-09-09T17:31:04;16.40;99.90
38398;DHT22;24179;52.094;4.408;2022-09-09T17:34:07;16.30;99.90
38398;DHT22;24179;52.094;4.408;2022-09-09T17:37:08;16.40;99.90
38398;DHT22;24179;52.094;4.408;2022-09-09T17:40:08;16.20;99.90
38398;DHT22;24179;52.094;4.408;2022-09-09T17:43:09;16.10;99.90
38398;DHT22;24179;52.094;4.408;2022-09-09T17:49:14;16.10;99.90
38398;DHT22;24179;52.094;4.408;2022-09-09T17:52:15;16.00;99.90
38398;DHT22;24179;52.094;4.408;2022-09-09T17:55:16;16.00;99.90
38398;DHT22;24179;52.094;4.408;2022-09-09T17:58:17;15.90;99.90
38398;DHT22;24179;52.094;4.408;2022-09-09T18:01:18;15.80;99.90
38398;DHT22;24179;52.094;4.408;2022-09-09T18:04:19;15.90;99.90
38398;DHT22;24179;52.094;4.408;2022-09-09T18:07:20;15.90;99.90
38398;DHT22;24179;52.094;4.408;2022-09-09T18:10:21;15.90;99.90
38398;DHT22;24179;52.094;4.408;2022-09-09T18:13:22;16.00;99.90
38398;DHT22;24179;52.094;4.408;2022-09-09T18:16:23;15.90;99.90
38398;DHT22;24179;52.094;4.408;2022-09-09T18:19:26;15.90;99.90
38398;DHT22;24179;52.094;4.408;2022-09-09T18:22:28;15.90;99.90
38398;DHT22;24179;52.094;4.408;2022-09-09T18:25:31;15.90;99.90
38398;DHT22;24179;52.094;4.408;2022-09-09T18:28:31;15.90;99.90
38398;DHT22;24179;52.094;4.408;2022-09-09T18:31:32;15.90;99.90
38398;DHT22;24179;52.094;4.408;2022-09-09T18:34:33;15.90;99.90
38398;DHT22;24179;52.094;4.408;2022-09-09T18:37:34;15.90;99.90
38398;DHT22;24179;52.094;4.408;2022-09-09T18:40:35;16.00;99.90
38398;DHT22;24179;52.094;4.408;2022-09-09T18:43:36;16.10;99.90
38398;DHT22;24179;52.094;4.408;2022-09-09T18:46:37;16.00;99.90
38398;DHT22;24179;52.094;4.408;2022-09-09T18:49:39;15.90;99.90
38398;DHT22;24179;52.094;4.408;2022-09-09T18:52:39;15.80;99.90
38398;DHT22;24179;52.094;4.408;2022-09-09T18:55:39;15.80;99.90
38398;DHT22;24179;52.094;4.408;2022-09-09T18:58:40;15.70;99.90
38398;DHT22;24179;52.094;4.408;2022-09-09T19:01:43;15.70;99.90
38398;DHT22;24179;52.094;4.408;2022-09-09T19:04:44;15.70;99.90
38398;DHT22;24179;52.094;4.408;2022-09-09T19:07:45;15.70;99.90
38398;DHT22;24179;52.094;4.408;2022-09-09T19:10:45;15.70;99.90
38398;DHT22;24179;52.094;4.408;2022-09-09T19:13:50;15.70;99.90
38398;DHT22;24179;52.094;4.408;2022-09-09T19:16:51;15.60;99.90
38398;DHT22;24179;52.094;4.408;2022-09-09T19:19:52;15.60;99.90
38398;DHT22;24179;52.094;4.408;2022-09-09T19:22:54;15.60;99.90
38398;DHT22;24179;52.094;4.408;2022-09-09T19:25:55;15.50;99.90
38398;DHT22;24179;52.094;4.408;2022-09-09T19:29:01;15.50;99.90
38398;DHT22;24179;52.094;4.408;2022-09-09T19:32:02;15.50;99.90
38398;DHT22;24179;52.094;4.408;2022-09-09T19:35:03;15.50;99.90
38398;DHT22;24179;52.094;4.408;2022-09-09T19:38:05;15.50;99.90
38398;DHT22;24179;52.094;4.408;2022-09-09T19:41:13;15.60;99.90
38398;DHT22;24179;52.094;4.408;2022-09-09T19:44:14;15.50;99.90
38398;DHT22;24179;52.094;4.408;2022-09-09T19:47:16;15.60;99.90
38398;DHT22;24179;52.094;4.408;2022-09-09T19:50:17;15.60;99.90
38398;DHT22;24179;52.094;4.408;2022-09-09T19:53:20;15.60;99.90
38398;DHT22;24179;52.094;4.408;2022-09-09T19:56:21;15.60;99.90
38398;DHT22;24179;52.094;4.408;2022-09-09T19:59:22;15.70;99.90
38398;DHT22;24179;52.094;4.408;2022-09-09T20:02:23;15.60;99.90
38398;DHT22;24179;52.094;4.408;2022-09-09T20:05:24;15.70;99.90
38398;DHT22;24179;52.094;4.408;2022-09-09T20:08:26;15.70;99.90
38398;DHT22;24179;52.094;4.408;2022-09-09T20:11:27;15.70;99.90
38398;DHT22;24179;52.094;4.408;2022-09-09T20:14:27;15.70;99.90
38398;DHT22;24179;52.094;4.408;2022-09-09T20:17:28;15.70;99.90
38398;DHT22;24179;52.094;4.408;2022-09-09T20:20:28;15.70;99.90
38398;DHT22;24179;52.094;4.408;2022-09-09T20:23:29;15.60;99.90
38398;DHT22;24179;52.094;4.408;2022-09-09T20:26:30;15.60;99.90
38398;DHT22;24179;52.094;4.408;2022-09-09T20:29:32;15.60;99.90
38398;DHT22;24179;52.094;4.408;2022-09-09T20:32:33;15.60;99.90
38398;DHT22;24179;52.094;4.408;2022-09-09T20:35:39;15.60;99.90
38398;DHT22;24179;52.094;4.408;2022-09-09T20:38:57;15.50;99.90
38398;DHT22;24179;52.094;4.408;2022-09-09T20:42:02;15.40;99.90
38398;DHT22;24179;52.094;4.408;2022-09-09T20:45:02;15.30;99.90
38398;DHT22;24179;52.094;4.408;2022-09-09T20:48:04;15.30;99.90
38398;DHT22;24179;52.094;4.408;2022-09-09T20:51:04;15.20;99.90
38398;DHT22;24179;52.094;4.408;2022-09-09T20:54:07;15.20;99.90
38398;DHT22;24179;52.094;4.408;2022-09-09T20:57:08;15.30;99.90
38398;DHT22;24179;52.094;4.408;2022-09-09T21:00:10;15.20;99.90
38398;DHT22;24179;52.094;4.408;2022-09-09T21:03:10;15.20;99.90
38398;DHT22;24179;52.094;4.408;2022-09-09T21:06:11;15.30;99.90
38398;DHT22;24179;52.094;4.408;2022-09-09T21:09:12;15.20;99.90
38398;DHT22;24179;52.094;4.408;2022-09-09T21:12:13;15.30;99.90
38398;DHT22;24179;52.094;4.408;2022-09-09T21:15:13;15.20;99.90
38398;DHT22;24179;52.094;4.408;2022-09-09T21:18:14;15.30;99.90
38398;DHT22;24179;52.094;4.408;2022-09-09T21:21:15;15.30;99.90
38398;DHT22;24179;52.094;4.408;2022-09-09T21:24:15;15.20;99.90